Grande Italia — IBTF — position and weather

sailwx.info

Track history (hours):
 
Tides and Currents Weather Stations Pressure Air Temp Water Temp Dewpoint Dewpoint Depression Visibility Wind Speed Wind Dir Waves Ship Positions

Grande Italia

Last reported at 2015-Sep-02 18:32 UTC. Time now 2015-Sep-03 06:52 UTC.
Position N 33°47' E 025°20'.

Length 177 m; draft 8.3 m.

Type: Cargo ship. MMSI: 247039300.

Date/timePositionNaut miles runAvg speedWind from/ knotsBaromVisibWave heightAir tempDewpointWater temp
2015-Sep-02 18:32N 33°47' E 025°20'4915.5
2015-Sep-02 15:21N 33°19' E 026°09'2714.8
2015-Sep-02 13:31N 33°04' E 026°36'1414.7
2015-Sep-02 12:33N 32°56' E 026°50'1615.1
2015-Sep-02 11:30N 32°48' E 027°07'3315.5
2015-Sep-02 09:24N 32°31' E 027°40'3115.7
2015-Sep-02 07:26N 32°12' E 028°09'1815.7
2015-Sep-02 06:18N 32°02' E 028°26'1115.4
2015-Sep-02 05:33N 31°56' E 028°38'1715.0
2015-Sep-02 04:27N 31°47' E 028°54'5714.5
2015-Sep-02 00:31N 31°12' E 029°47'4 0.3
2015-Sep-01 12:30N 31°10' E 029°51'8 8.0
2015-Sep-01 11:28N 31°16' E 029°45'1314.5
2015-Sep-01 10:33N 31°24' E 029°32'8016.1
2015-Sep-01 05:33N 31°48' E 028°02'4815.7
2015-Sep-01 02:30N 32°02' E 027°08'1515.7
2015-Sep-01 01:33N 32°07' E 026°52'1615.7
2015-Sep-01 00:33N 32°12' E 026°34'6615.3
2015-Aug-31 20:13N 32°32' E 025°19'7315.6
2015-Aug-31 15:32N 32°51' E 023°55'48812.8
2015-Aug-30 01:29N 32°41' E 014°15'  
2015-Aug-27 18:16N 35°22' E 013°47'1315.1
2015-Aug-27 17:27N 35°34' E 013°44'1515.1
2015-Aug-27 16:28N 35°49' E 013°41'1314.4
2015-Aug-27 15:33N 36°01' E 013°34'1514.9
2015-Aug-27 14:34N 36°10' E 013°20'1514.9
2015-Aug-27 13:33N 36°20' E 013°05'1515.0
2015-Aug-27 12:33N 36°29' E 012°51'1614.9
2015-Aug-27 11:30N 36°38' E 012°35'1515.4
2015-Aug-27 10:34N 36°46' E 012°20'1615.6
2015-Aug-27 09:34N 36°55' E 012°04'3215.6
2015-Aug-27 07:30N 37°12' E 011°30'2015.8
2015-Aug-27 06:16N 37°22' E 011°09'1815.4
2015-Aug-27 05:07N 37°27' E 010°48'915.3
2015-Aug-27 04:33N 37°29' E 010°37'3115.1
2015-Aug-27 02:28N 37°34' E 009°58'6315.2
2015-Aug-26 22:18N 37°47' E 008°40'1115.3
2015-Aug-26 21:33N 37°50' E 008°25'2114.8
2015-Aug-26 20:07N 37°55' E 007°60'18814.7
2015-Aug-26 07:24N 38°41' E 004°08'1314.9
2015-Aug-26 06:33N 38°44' E 003°52'1515.0
2015-Aug-26 05:33N 38°48' E 003°34'1515.2
2015-Aug-26 04:34N 38°52' E 003°15'1515.1
2015-Aug-26 03:33N 38°56' E 002°56'1515.0
2015-Aug-26 02:33N 39°00' E 002°37'1515.0
2015-Aug-26 01:33N 39°04' E 002°19'1514.8
2015-Aug-26 00:33N 39°07' E 002°00'1514.8
2015-Aug-25 23:33N 39°11' E 001°42'1514.7
2015-Aug-25 22:34N 39°13' E 001°23'1515.0
2015-Aug-25 21:32N 39°15' E 001°03'6015.2
2015-Aug-25 17:33N 39°25' W 000°14'4 3.7
2015-Aug-25 16:31N 39°27' W 000°18'0 0.0
2015-Aug-25 15:31N 39°27' W 000°18'0 0.0
2015-Aug-25 14:31N 39°27' W 000°18'0 0.0
2015-Aug-25 13:31N 39°27' W 000°18'0 0.0
2015-Aug-25 12:31N 39°27' W 000°18'0 0.0
2015-Aug-25 11:28N 39°27' W 000°18'0 0.0
2015-Aug-25 10:31N 39°27' W 000°18'2 2.3
2015-Aug-25 09:33N 39°25' W 000°16'5116.1
2015-Aug-25 06:24N 38°48' E 000°28'1416.5
2015-Aug-25 05:33N 38°35' E 000°21'1717.2
2015-Aug-25 04:33N 38°20' E 000°09'2117.2
2015-Aug-25 03:20N 38°03' W 000°06'1316.9
2015-Aug-25 02:33N 37°52' W 000°15'1716.6
2015-Aug-25 01:33N 37°38' W 000°26'1716.6
2015-Aug-25 00:33N 37°26' W 000°41'1716.9
2015-Aug-24 23:33N 37°15' W 000°57'1616.5
2015-Aug-24 22:33N 37°04' W 001°12'1716.8
2015-Aug-24 21:31N 36°53' W 001°29'1616.5
2015-Aug-24 20:33N 36°42' W 001°44'  
Track history (hours):
 
Tides and Currents Weather Stations Pressure Air Temp Water Temp Dewpoint Dewpoint Depression Visibility Wind Speed Wind Dir Waves Ship Positions

Grande Italia

Last reported at 2015-Sep-02 18:32 UTC. Time now 2015-Sep-03 06:52 UTC.
Position N 33°47' E 025°20'.

Length 177 m; draft 8.3 m.

Type: Cargo ship. MMSI: 247039300.

Date/timePositionNaut miles runAvg speedWind from/ knotsBaromVisibWave heightAir tempDewpointWater temp
2015-Sep-02 18:32N 33°47' E 025°20'4915.5
2015-Sep-02 15:21N 33°19' E 026°09'2714.8
2015-Sep-02 13:31N 33°04' E 026°36'1414.7
2015-Sep-02 12:33N 32°56' E 026°50'1615.1
2015-Sep-02 11:30N 32°48' E 027°07'3315.5
2015-Sep-02 09:24N 32°31' E 027°40'3115.7
2015-Sep-02 07:26N 32°12' E 028°09'1815.7
2015-Sep-02 06:18N 32°02' E 028°26'1115.4
2015-Sep-02 05:33N 31°56' E 028°38'1715.0
2015-Sep-02 04:27N 31°47' E 028°54'5714.5
2015-Sep-02 00:31N 31°12' E 029°47'4 0.3
2015-Sep-01 12:30N 31°10' E 029°51'8 8.0
2015-Sep-01 11:28N 31°16' E 029°45'1314.5
2015-Sep-01 10:33N 31°24' E 029°32'8016.1
2015-Sep-01 05:33N 31°48' E 028°02'4815.7
2015-Sep-01 02:30N 32°02' E 027°08'1515.7
2015-Sep-01 01:33N 32°07' E 026°52'1615.7
2015-Sep-01 00:33N 32°12' E 026°34'6615.3
2015-Aug-31 20:13N 32°32' E 025°19'7315.6
2015-Aug-31 15:32N 32°51' E 023°55'48812.8
2015-Aug-30 01:29N 32°41' E 014°15'  
2015-Aug-27 18:16N 35°22' E 013°47'1315.1
2015-Aug-27 17:27N 35°34' E 013°44'1515.1
2015-Aug-27 16:28N 35°49' E 013°41'1314.4
2015-Aug-27 15:33N 36°01' E 013°34'1514.9
2015-Aug-27 14:34N 36°10' E 013°20'1514.9
2015-Aug-27 13:33N 36°20' E 013°05'1515.0
2015-Aug-27 12:33N 36°29' E 012°51'1614.9
2015-Aug-27 11:30N 36°38' E 012°35'1515.4
2015-Aug-27 10:34N 36°46' E 012°20'1615.6
2015-Aug-27 09:34N 36°55' E 012°04'3215.6
2015-Aug-27 07:30N 37°12' E 011°30'2015.8
2015-Aug-27 06:16N 37°22' E 011°09'1815.4
2015-Aug-27 05:07N 37°27' E 010°48'915.3
2015-Aug-27 04:33N 37°29' E 010°37'3115.1
2015-Aug-27 02:28N 37°34' E 009°58'6315.2
2015-Aug-26 22:18N 37°47' E 008°40'1115.3
2015-Aug-26 21:33N 37°50' E 008°25'2114.8
2015-Aug-26 20:07N 37°55' E 007°60'18814.7
2015-Aug-26 07:24N 38°41' E 004°08'1314.9
2015-Aug-26 06:33N 38°44' E 003°52'1515.0
2015-Aug-26 05:33N 38°48' E 003°34'1515.2
2015-Aug-26 04:34N 38°52' E 003°15'1515.1
2015-Aug-26 03:33N 38°56' E 002°56'1515.0
2015-Aug-26 02:33N 39°00' E 002°37'1515.0
2015-Aug-26 01:33N 39°04' E 002°19'1514.8
2015-Aug-26 00:33N 39°07' E 002°00'1514.8
2015-Aug-25 23:33N 39°11' E 001°42'1514.7
2015-Aug-25 22:34N 39°13' E 001°23'1515.0
2015-Aug-25 21:32N 39°15' E 001°03'6015.2
2015-Aug-25 17:33N 39°25' W 000°14'4 3.7
2015-Aug-25 16:31N 39°27' W 000°18'0 0.0
2015-Aug-25 15:31N 39°27' W 000°18'0 0.0
2015-Aug-25 14:31N 39°27' W 000°18'0 0.0
2015-Aug-25 13:31N 39°27' W 000°18'0 0.0
2015-Aug-25 12:31N 39°27' W 000°18'0 0.0
2015-Aug-25 11:28N 39°27' W 000°18'0 0.0
2015-Aug-25 10:31N 39°27' W 000°18'2 2.3
2015-Aug-25 09:33N 39°25' W 000°16'5116.1
2015-Aug-25 06:24N 38°48' E 000°28'1416.5
2015-Aug-25 05:33N 38°35' E 000°21'1717.2
2015-Aug-25 04:33N 38°20' E 000°09'2117.2
2015-Aug-25 03:20N 38°03' W 000°06'1316.9
2015-Aug-25 02:33N 37°52' W 000°15'1716.6
2015-Aug-25 01:33N 37°38' W 000°26'1716.6
2015-Aug-25 00:33N 37°26' W 000°41'1716.9
2015-Aug-24 23:33N 37°15' W 000°57'1616.5
2015-Aug-24 22:33N 37°04' W 001°12'1716.8
2015-Aug-24 21:31N 36°53' W 001°29'1616.5
2015-Aug-24 20:33N 36°42' W 001°44'  

Dump ship's entire track history